Aeroporto :
LOGIN :

Iscrizione | Disclaimer

   EN    FR    IT 

 










Sommario :    VFR   VFR Marginale   IFR   IFR Intensivo   IFR Molto Intensivo
Visibilità : 
Base nubi : 
>= 8 km
>= 3000ft
5 / 8 km
1000 / 3000 ft
1500m / 5 km
500 / 1000 ft
800 / 1500m
200 / 500 ft
< 800m
< 200 ft
Simboli :   Temporali  Nebbia  Neve Forte  Precipitazioni Forti  Vento > 20 kt
SIGMETs :   Varie  Temporali  Ghiacco  Turbolenza  Onda orograficha  Ceneri Vulcaniche







- Altitudine del aeroporto : 1910 ft
- Codice IATA : RDZ
- Carte del aeroporto


LFCR - Rodez

ULTIMO METAR :
  • 182200Z AUTO 10014G24KT CAVOK 14/M01 Q1020 NOSIG

METARs OBSOLETI :
  • 182130Z AUTO 11014KT CAVOK 13/01 Q1020 BECMG 13018G28KT
  • 182100Z AUTO 11011KT CAVOK 13/00 Q1020 BECMG 13018G28KT
  • 182030Z AUTO 12011KT CAVOK 13/M01 Q1020 BECMG 13018G28KT
  • 182000Z AUTO 12015G27KT 080V140 CAVOK 14/M02 Q1020 NOSIG
  • 181930Z AUTO 12013KT CAVOK 14/M00 Q1020 BECMG 13018G28KT

TAF TAF LFCR
Valido dal 18 a 18 ore il 19 a 18 ore UTC


181700Z 1818/1918 13018G28KT CAVOK
Nessun NOTAM noto per questo aeroporto.
2 SIGMETs conosciuti per la FIR Bordeaux (LFBB) :
 
Turbolenza severa
LFBB SIGMET 6 VALID 190100/190500 LFPW
LFBB BORDEAUX FIR/UIR SEV TURB FCST WI N4400 E00245 - N4315 E00230 - N4300 E00215 - N4330 E00130 - N4400 E00245 SFC/FL050 STNR NC=
Turbolenza severa
LFBB SIGMET 5 VALID 182100/190100 LFPW
LFBB BORDEAUX FIR/UIR SEV TURB FCST WI N4415 E00245 - N4315 E00230 - N4245 E00215 - N4330 E00130 - N4415 E00230 SFC/FL060 STNR NC=



MetMap, La meteo Aeronautica in un colpo d'occhio ! - Copyright ORBIFLY Dicembre 2007 - Disclaimer

ORBIFLY MET'MAP TEAM :

Programmazione e sviluppo : Alexandra Zaïnal
Concezione e sviluppo : Baudouin d'Aumeries
Co-Programmazione e sviluppo : Marc-Olivier Méhu
Supporto tecnico e logistico : Manuel Goepfert
Aiuto per la traduzione : Arnaldo La Scala

Contatto : metmap@orbifly.com




FONTI E CREDITI :

   NOAA